Time;durP1;ratioP1;P1;durP2;ratioP2;P2;SDS_P1;SDS_P2;PMS_P1;PMS_P2;Temp;Humidity;BMP_temperature;BMP_pressure;BME280_temperature;BME280_humidity;BME280_pressure;Samples;Min_cycle;Max_cycle;Signal;HPM_P1;HPM_P2
2021/12/07 00:00:57;;;;;;;;;;;19.90;47.40;;;;;;4955016;28;19945;-77
2021/12/07 00:03:23;;;;;;;;;;;19.90;47.40;;;;;;4953023;28;19985;-76
2021/12/07 00:05:49;;;;;;;;;;;20.00;47.60;;;;;;4954161;29;20339;-77
2021/12/07 00:08:14;;;;;;;;;;;20.00;47.60;;;;;;4954827;29;20453;-77
2021/12/07 00:10:41;;;;;;;;;;;20.00;47.60;;;;;;4955000;28;19942;-78
2021/12/07 00:13:09;;;;;;;;;;;20.00;47.70;;;;;;4937295;29;19933;-77
2021/12/07 00:15:36;;;;;;;;;;;20.00;47.80;;;;;;4968382;23;19922;-77
2021/12/07 00:18:03;;;;;;;;;;;20.00;47.70;;;;;;4940228;28;19910;-78
2021/12/07 00:20:28;;;;;;;;;;;20.00;47.90;;;;;;4974007;28;19929;-78
2021/12/07 00:22:56;;;;;;;;;;;20.00;48.00;;;;;;4973741;28;19917;-79
2021/12/07 00:25:23;;;;;;;;;;;20.00;48.20;;;;;;4973415;28;19914;-79
2021/12/07 00:27:48;;;;;;;;;;;20.00;48.20;;;;;;4956065;28;19910;-78
2021/12/07 00:30:15;;;;;;;;;;;20.00;48.20;;;;;;4956333;28;19917;-79
2021/12/07 00:32:47;;;;;;;;;;;20.10;48.40;;;;;;4956005;28;19914;-79
2021/12/07 00:35:33;;;;;;;;;;;20.00;48.40;;;;;;4973447;28;19914;-78
2021/12/07 00:38:00;;;;;;;;;;;20.00;48.40;;;;;;4956746;28;19910;-79
2021/12/07 00:40:25;;;;;;;;;;;20.10;48.60;;;;;;4956540;28;19917;-77
2021/12/07 00:42:51;;;;;;;;;;;20.10;48.70;;;;;;4956669;28;19910;-80
2021/12/07 00:45:21;;;;;;;;;;;20.00;48.70;;;;;;4973810;28;19910;-81
2021/12/07 00:47:51;;;;;;;;;;;20.10;48.80;;;;;;4956606;28;19996;-82
2021/12/07 00:50:17;;;;;;;;;;;20.10;48.80;;;;;;4952006;28;20375;-80
2021/12/07 00:52:44;;;;;;;;;;;20.10;49.00;;;;;;4973503;28;19910;-79
2021/12/07 00:55:12;;;;;;;;;;;20.10;49.00;;;;;;4973503;28;19921;-80
2021/12/07 00:57:38;;;;;;;;;;;20.10;49.20;;;;;;4957550;28;19910;-80
2021/12/07 01:00:06;;;;;;;;;;;20.10;49.20;;;;;;4958185;28;19917;-80
2021/12/07 01:02:32;;;;;;;;;;;20.10;49.30;;;;;;4960379;28;19910;-81
2021/12/07 01:05:07;;;;;;;;;;;20.00;49.30;;;;;;4959373;28;19910;-81
2021/12/07 01:07:53;;;;;;;;;;;20.10;49.40;;;;;;4956021;28;19961;-81
2021/12/07 01:26:46;;;;;;;;;;;20.00;49.80;;;;;;4936726;28;19910;-78
2021/12/07 01:29:12;;;;;;;;;;;20.00;49.80;;;;;;4939396;28;19910;-78
2021/12/07 01:32:55;;;;;;;;;;;20.00;49.90;;;;;;4954094;28;20469;-79
2021/12/07 01:39:53;;;;;;;;;;;20.00;50.00;;;;;;4955619;28;19918;-78
2021/12/07 01:48:10;;;;;;;;;;;19.80;44.20;;;;;;4955394;28;19914;-78
2021/12/07 01:50:50;;;;;;;;;;;19.20;39.00;;;;;;4954496;28;20478;-78
2021/12/07 01:57:50;;;;;;;;;;;18.80;37.40;;;;;;4935667;28;19914;-77
2021/12/07 02:01:33;;;;;;;;;;;18.10;35.90;;;;;;4974050;28;20413;-78
2021/12/07 02:03:59;;;;;;;;;;;17.90;35.50;;;;;;4958718;28;19914;-78
2021/12/07 02:06:25;;;;;;;;;;;18.00;36.90;;;;;;4958845;28;19910;-78
2021/12/07 02:08:51;;;;;;;;;;;18.30;38.10;;;;;;4959278;28;19929;-78
2021/12/07 02:11:17;;;;;;;;;;;18.50;38.80;;;;;;4976410;28;20000;-78
2021/12/07 02:16:10;;;;;;;;;;;18.90;39.50;;;;;;4958401;28;19917;-79
2021/12/07 02:18:37;;;;;;;;;;;19.10;39.40;;;;;;4959065;28;19965;-79
2021/12/07 02:21:20;;;;;;;;;;;19.20;40.40;;;;;;4927019;28;19914;-79
2021/12/07 02:23:50;;;;;;;;;;;19.30;39.80;;;;;;4975113;28;19922;-78
2021/12/07 02:26:19;;;;;;;;;;;19.40;39.90;;;;;;4958897;28;19957;-78
2021/12/07 02:28:45;;;;;;;;;;;19.50;40.50;;;;;;4957902;28;19910;-77
2021/12/07 02:31:15;;;;;;;;;;;19.50;40.30;;;;;;4975546;28;19914;-79
2021/12/07 02:33:44;;;;;;;;;;;19.60;40.70;;;;;;4958242;28;19917;-78
2021/12/07 02:36:13;;;;;;;;;;;19.60;41.10;;;;;;4955534;28;19910;-78
2021/12/07 02:38:42;;;;;;;;;;;19.60;41.30;;;;;;4958094;28;20260;-77
2021/12/07 02:41:08;;;;;;;;;;;19.70;41.60;;;;;;4955644;28;19916;-78
2021/12/07 02:43:40;;;;;;;;;;;19.70;41.80;;;;;;4942118;28;19917;-78
2021/12/07 02:46:06;;;;;;;;;;;19.70;42.00;;;;;;4957853;28;19918;-77
2021/12/07 02:48:32;;;;;;;;;;;19.70;42.20;;;;;;4957979;28;19916;-77
2021/12/07 02:51:00;;;;;;;;;;;19.70;42.40;;;;;;4957625;28;19921;-78
2021/12/07 02:53:30;;;;;;;;;;;19.80;42.70;;;;;;4941189;28;19914;-77
2021/12/07 02:55:57;;;;;;;;;;;19.80;42.90;;;;;;4957014;28;19914;-77
2021/12/07 02:58:25;;;;;;;;;;;19.80;43.00;;;;;;4957705;28;19910;-77
2021/12/07 03:00:59;;;;;;;;;;;19.80;43.20;;;;;;4957191;28;19910;-77
2021/12/07 03:03:25;;;;;;;;;;;19.80;43.30;;;;;;4957420;28;19910;-77
2021/12/07 03:06:08;;;;;;;;;;;19.80;43.50;;;;;;4974315;28;19914;-78
2021/12/07 03:27:51;;;;;;;;;;;19.90;44.70;;;;;;4954708;28;19914;-77
2021/12/07 03:30:17;;;;;;;;;;;19.90;44.90;;;;;;4956932;28;19929;-77
2021/12/07 03:32:43;;;;;;;;;;;19.90;44.90;;;;;;4956706;28;19945;-77
2021/12/07 03:35:09;;;;;;;;;;;19.90;45.00;;;;;;4956025;28;19914;-77
2021/12/07 03:37:34;;;;;;;;;;;19.90;45.10;;;;;;4940666;28;19910;-77
2021/12/07 03:40:01;;;;;;;;;;;19.90;45.10;;;;;;4956762;28;19914;-78
2021/12/07 03:42:26;;;;;;;;;;;19.90;45.20;;;;;;4957200;28;19917;-77
2021/12/07 03:44:52;;;;;;;;;;;19.90;45.50;;;;;;4974403;28;19957;-77
2021/12/07 03:47:18;;;;;;;;;;;19.90;45.60;;;;;;4956871;28;19957;-77
2021/12/07 03:49:44;;;;;;;;;;;19.90;45.60;;;;;;4956553;28;19997;-77
2021/12/07 03:52:10;;;;;;;;;;;19.90;45.70;;;;;;4956302;28;19961;-77
2021/12/07 03:54:37;;;;;;;;;;;19.90;45.80;;;;;;4955927;28;19914;-77
2021/12/07 03:57:03;;;;;;;;;;;19.90;45.80;;;;;;4973282;28;19945;-77
2021/12/07 03:59:29;;;;;;;;;;;19.90;45.90;;;;;;4956253;28;20005;-77
2021/12/07 04:01:55;;;;;;;;;;;19.90;46.10;;;;;;4956044;28;20446;-77
2021/12/07 04:04:21;;;;;;;;;;;19.90;46.10;;;;;;4955919;28;19913;-77
2021/12/07 04:06:46;;;;;;;;;;;19.90;46.20;;;;;;4955592;28;20013;-77
2021/12/07 04:09:12;;;;;;;;;;;19.90;46.20;;;;;;4956197;28;19910;-77
2021/12/07 04:11:38;;;;;;;;;;;19.90;46.40;;;;;;4955970;28;19914;-77
2021/12/07 04:14:04;;;;;;;;;;;19.90;46.50;;;;;;4955804;28;19914;-77
2021/12/07 04:16:31;;;;;;;;;;;19.90;46.50;;;;;;4955558;28;19914;-77
2021/12/07 04:18:59;;;;;;;;;;;19.90;46.60;;;;;;4940046;28;19914;-77
2021/12/07 04:21:24;;;;;;;;;;;19.90;46.70;;;;;;4955609;28;19910;-77
2021/12/07 04:23:50;;;;;;;;;;;19.90;46.70;;;;;;4955257;28;19994;-77
2021/12/07 04:26:16;;;;;;;;;;;19.90;46.80;;;;;;4955552;28;19957;-77
2021/12/07 04:28:42;;;;;;;;;;;19.90;46.90;;;;;;4972801;28;19914;-77
2021/12/07 04:31:09;;;;;;;;;;;19.90;46.90;;;;;;4970411;28;20009;-77
2021/12/07 04:33:35;;;;;;;;;;;19.90;47.00;;;;;;4972781;28;19941;-77
2021/12/07 04:36:01;;;;;;;;;;;19.90;47.00;;;;;;4972569;28;20477;-77
2021/12/07 04:38:26;;;;;;;;;;;19.90;47.10;;;;;;4972781;28;19965;-77
2021/12/07 04:40:52;;;;;;;;;;;19.90;47.20;;;;;;4972609;28;20004;-77
2021/12/07 04:43:18;;;;;;;;;;;19.90;47.20;;;;;;4972638;28;19933;-77
2021/12/07 04:58:56;;;;;;;;;;;19.90;47.50;;;;;;4973339;28;19910;-77
2021/12/07 05:01:23;;;;;;;;;;;19.90;47.60;;;;;;4973750;28;20282;-77
2021/12/07 05:03:58;;;;;;;;;;;19.90;47.60;;;;;;4940128;28;20399;-77
2021/12/07 05:06:27;;;;;;;;;;;19.90;47.60;;;;;;4973408;28;20334;-77
2021/12/07 05:09:20;;;;;;;;;;;19.90;47.70;;;;;;4973599;28;19960;-77
2021/12/07 05:11:52;;;;;;;;;;;20.00;47.90;;;;;;4973932;28;19916;-77
2021/12/07 05:14:27;;;;;;;;;;;20.00;47.90;;;;;;4956158;28;20359;-77
2021/12/07 05:17:11;;;;;;;;;;;20.00;48.00;;;;;;4973353;28;20008;-77
2021/12/07 05:25:08;;;;;;;;;;;20.00;48.00;;;;;;4969892;28;19949;-77
2021/12/07 05:38:31;;;;;;;;;;;20.00;48.20;;;;;;4977014;28;20001;-77
2021/12/07 05:40:57;;;;;;;;;;;20.00;48.30;;;;;;4977657;28;19950;-77
2021/12/07 05:43:22;;;;;;;;;;;20.00;48.20;;;;;;4959986;28;19910;-77
2021/12/07 05:45:48;;;;;;;;;;;20.00;48.30;;;;;;4976760;28;20006;-77
2021/12/07 05:48:14;;;;;;;;;;;20.00;48.40;;;;;;4977195;28;19917;-77
2021/12/07 05:50:41;;;;;;;;;;;20.00;48.40;;;;;;4976983;28;19929;-77
2021/12/07 05:53:08;;;;;;;;;;;20.00;48.50;;;;;;4976977;28;19914;-78
2021/12/07 05:55:34;;;;;;;;;;;20.00;48.40;;;;;;4976451;28;19917;-77
2021/12/07 05:58:00;;;;;;;;;;;20.00;48.50;;;;;;4977048;28;19910;-76
2021/12/07 06:00:32;;;;;;;;;;;20.00;48.60;;;;;;4975659;28;19917;-77
2021/12/07 06:03:05;;;;;;;;;;;20.00;48.70;;;;;;4975708;28;19910;-77
2021/12/07 06:05:31;;;;;;;;;;;20.00;48.70;;;;;;4976231;28;19910;-77
2021/12/07 06:07:57;;;;;;;;;;;20.00;48.70;;;;;;4976744;28;19917;-77
2021/12/07 06:10:23;;;;;;;;;;;20.00;48.80;;;;;;4976595;28;19929;-77
2021/12/07 06:12:49;;;;;;;;;;;20.00;48.70;;;;;;4975273;28;19913;-77
2021/12/07 06:15:18;;;;;;;;;;;20.00;48.70;;;;;;4987142;23;19922;-77
2021/12/07 06:17:46;;;;;;;;;;;20.00;48.80;;;;;;4942493;28;19917;-76
2021/12/07 06:20:12;;;;;;;;;;;20.00;48.90;;;;;;4975754;28;19910;-76
2021/12/07 06:22:38;;;;;;;;;;;20.10;49.50;;;;;;4943226;28;19964;-76
2021/12/07 06:25:04;;;;;;;;;;;20.00;48.90;;;;;;4958358;28;19917;-77
2021/12/07 06:27:30;;;;;;;;;;;20.00;48.80;;;;;;4959170;28;20016;-77
2021/12/07 06:29:57;;;;;;;;;;;20.00;49.00;;;;;;4958603;28;20001;-77
2021/12/07 06:32:23;;;;;;;;;;;20.10;49.00;;;;;;4959020;28;19965;-77
2021/12/07 06:34:49;;;;;;;;;;;20.00;48.90;;;;;;4958324;28;20331;-77
2021/12/07 06:37:14;;;;;;;;;;;20.10;49.00;;;;;;4976496;28;19964;-76
2021/12/07 06:39:40;;;;;;;;;;;20.00;49.50;;;;;;4976055;28;19914;-76
2021/12/07 06:42:06;;;;;;;;;;;20.00;49.00;;;;;;4975990;28;19921;-75
2021/12/07 06:44:31;;;;;;;;;;;20.10;49.10;;;;;;4975733;28;20398;-75
2021/12/07 06:46:57;;;;;;;;;;;20.10;49.20;;;;;;4975722;28;20619;-75
2021/12/07 06:49:22;;;;;;;;;;;20.00;49.30;;;;;;4958318;28;20387;-75
2021/12/07 06:51:51;;;;;;;;;;;20.10;49.40;;;;;;4958494;28;19988;-75
2021/12/07 06:54:17;;;;;;;;;;;20.00;49.30;;;;;;4975363;28;19941;-75
2021/12/07 06:56:43;;;;;;;;;;;20.00;49.30;;;;;;4958136;28;19914;-75
2021/12/07 06:59:09;;;;;;;;;;;20.00;49.30;;;;;;4975801;28;19910;-75
2021/12/07 07:01:34;;;;;;;;;;;20.10;49.40;;;;;;4975559;28;19965;-75
2021/12/07 07:04:00;;;;;;;;;;;20.00;49.40;;;;;;4958447;28;19910;-75
2021/12/07 07:06:26;;;;;;;;;;;20.00;49.40;;;;;;4975273;28;19957;-75
2021/12/07 07:08:52;;;;;;;;;;;20.10;49.50;;;;;;4958468;28;19914;-76
2021/12/07 07:11:18;;;;;;;;;;;20.00;49.40;;;;;;4975477;28;19957;-77
2021/12/07 07:13:45;;;;;;;;;;;20.10;49.50;;;;;;4975528;28;19996;-75
2021/12/07 07:16:10;;;;;;;;;;;20.10;49.50;;;;;;4957841;28;19914;-75
2021/12/07 07:18:36;;;;;;;;;;;20.00;49.50;;;;;;4942348;28;19957;-75
2021/12/07 07:21:03;;;;;;;;;;;20.10;49.70;;;;;;4975742;28;20375;-75
2021/12/07 07:23:28;;;;;;;;;;;20.00;49.60;;;;;;4975439;28;19917;-75
2021/12/07 07:25:55;;;;;;;;;;;20.00;49.60;;;;;;4974983;28;19913;-75
2021/12/07 07:28:22;;;;;;;;;;;20.00;49.70;;;;;;4975541;28;20048;-75
2021/12/07 07:30:48;;;;;;;;;;;20.00;49.70;;;;;;4957992;28;19917;-75
2021/12/07 07:33:14;;;;;;;;;;;20.00;49.70;;;;;;4974942;28;20568;-75
2021/12/07 07:35:40;;;;;;;;;;;20.00;49.70;;;;;;4974623;28;19910;-75
2021/12/07 07:38:06;;;;;;;;;;;20.00;49.70;;;;;;4957870;28;20349;-76
2021/12/07 07:40:31;;;;;;;;;;;20.00;49.80;;;;;;4941754;28;19997;-75
2021/12/07 07:42:57;;;;;;;;;;;20.00;49.70;;;;;;4957888;28;19984;-75
2021/12/07 07:45:46;;;;;;;;;;;20.00;49.80;;;;;;4941271;28;19909;-75
2021/12/07 07:48:12;;;;;;;;;;;20.00;49.80;;;;;;4974805;28;20450;-75
2021/12/07 07:50:37;;;;;;;;;;;20.00;49.80;;;;;;4957593;28;19949;-75
2021/12/07 07:53:03;;;;;;;;;;;20.00;49.80;;;;;;4974965;28;19914;-75
2021/12/07 07:55:29;;;;;;;;;;;20.00;49.80;;;;;;4974170;28;20301;-75
2021/12/07 07:57:55;;;;;;;;;;;20.00;49.80;;;;;;4974106;28;19910;-75
2021/12/07 08:00:21;;;;;;;;;;;20.00;49.80;;;;;;4974819;28;19913;-76
2021/12/07 08:02:47;;;;;;;;;;;20.10;50.00;;;;;;4957369;28;19934;-76
2021/12/07 08:05:14;;;;;;;;;;;20.00;49.80;;;;;;4956938;28;19957;-76
2021/12/07 08:07:40;;;;;;;;;;;20.10;50.20;;;;;;4974493;28;19910;-75
2021/12/07 08:10:07;;;;;;;;;;;20.10;50.20;;;;;;4974198;28;19914;-76
2021/12/07 08:12:33;;;;;;;;;;;20.00;50.10;;;;;;4974170;28;20070;-75
2021/12/07 08:14:59;;;;;;;;;;;20.00;50.10;;;;;;4973894;28;20279;-75
2021/12/07 08:17:24;;;;;;;;;;;20.10;50.10;;;;;;4974352;28;19917;-75
2021/12/07 08:19:50;;;;;;;;;;;20.00;50.10;;;;;;4974574;28;19916;-75
2021/12/07 08:22:16;;;;;;;;;;;20.00;50.10;;;;;;4956812;28;19910;-75
2021/12/07 08:24:41;;;;;;;;;;;20.00;50.10;;;;;;4973870;28;20390;-75
2021/12/07 08:27:07;;;;;;;;;;;20.00;50.10;;;;;;4973864;28;19917;-75
2021/12/07 08:29:33;;;;;;;;;;;20.10;50.10;;;;;;4974174;28;19917;-76
2021/12/07 08:31:59;;;;;;;;;;;20.00;50.10;;;;;;4974286;28;19976;-76
2021/12/07 08:34:24;;;;;;;;;;;20.00;50.60;;;;;;4973821;28;20234;-77
2021/12/07 08:36:50;;;;;;;;;;;20.00;50.20;;;;;;4973702;28;20302;-77
2021/12/07 08:39:15;;;;;;;;;;;20.00;50.30;;;;;;4974367;28;19910;-77
2021/12/07 08:41:41;;;;;;;;;;;20.00;50.30;;;;;;4973781;28;19914;-77
2021/12/07 08:44:07;;;;;;;;;;;20.00;50.20;;;;;;4974115;28;19969;-77
2021/12/07 08:46:33;;;;;;;;;;;20.00;50.20;;;;;;4973712;28;19914;-77
2021/12/07 08:48:58;;;;;;;;;;;20.10;50.20;;;;;;4973892;28;19917;-77
2021/12/07 08:51:24;;;;;;;;;;;20.00;50.10;;;;;;4956407;28;19949;-77
2021/12/07 08:53:56;;;;;;;;;;;20.00;50.10;;;;;;4973662;28;19914;-77
2021/12/07 09:01:52;;;;;;;;;;;20.00;50.20;;;;;;4973389;28;20327;-77
2021/12/07 09:04:20;;;;;;;;;;;20.10;50.20;;;;;;4973616;28;19910;-77
2021/12/07 09:06:46;;;;;;;;;;;20.00;50.20;;;;;;4972755;28;19952;-77
2021/12/07 09:09:12;;;;;;;;;;;20.00;50.20;;;;;;4972150;28;20371;-77
2021/12/07 09:11:38;;;;;;;;;;;20.10;50.30;;;;;;4973393;28;19937;-77
2021/12/07 09:14:03;;;;;;;;;;;20.00;50.20;;;;;;4973297;28;20338;-78
2021/12/07 09:16:29;;;;;;;;;;;20.00;50.20;;;;;;4972442;28;19914;-78
2021/12/07 09:18:55;;;;;;;;;;;20.10;50.40;;;;;;4972952;28;19910;-77
2021/12/07 09:21:20;;;;;;;;;;;20.10;50.40;;;;;;4973053;28;20286;-77
2021/12/07 09:23:46;;;;;;;;;;;20.10;50.40;;;;;;4972552;28;20375;-76
2021/12/07 09:26:12;;;;;;;;;;;20.10;50.40;;;;;;4972673;28;19910;-76
2021/12/07 09:28:39;;;;;;;;;;;20.10;50.40;;;;;;4972421;28;19964;-76
2021/12/07 09:31:06;;;;;;;;;;;20.10;50.50;;;;;;4972843;28;19917;-77
2021/12/07 09:33:31;;;;;;;;;;;20.10;50.60;;;;;;4972366;28;20016;-76
2021/12/07 09:35:57;;;;;;;;;;;20.10;50.70;;;;;;4972162;28;20059;-76
2021/12/07 09:38:23;;;;;;;;;;;20.10;50.80;;;;;;4955363;28;20022;-76
2021/12/07 09:40:49;;;;;;;;;;;20.10;50.80;;;;;;4954644;28;19926;-76
2021/12/07 09:43:15;;;;;;;;;;;20.10;50.80;;;;;;4971098;28;19909;-76
2021/12/07 09:45:42;;;;;;;;;;;20.10;50.80;;;;;;4972040;28;20362;-76
2021/12/07 09:48:09;;;;;;;;;;;20.10;50.80;;;;;;4971973;28;19949;-76
2021/12/07 09:50:35;;;;;;;;;;;20.10;50.80;;;;;;4972532;28;19910;-75
2021/12/07 09:53:02;;;;;;;;;;;20.10;50.90;;;;;;4955024;28;19910;-75
2021/12/07 09:55:29;;;;;;;;;;;20.10;50.80;;;;;;4971834;28;19964;-77
2021/12/07 09:57:55;;;;;;;;;;;20.10;50.90;;;;;;4972021;28;19946;-77
2021/12/07 10:00:22;;;;;;;;;;;20.10;50.80;;;;;;4971071;28;19914;-84
2021/12/07 10:02:49;;;;;;;;;;;20.10;50.60;;;;;;4938995;28;19976;-78
2021/12/07 10:05:17;;;;;;;;;;;20.10;50.40;;;;;;4970410;28;19910;-78
2021/12/07 10:07:44;;;;;;;;;;;20.10;50.30;;;;;;4954793;28;19921;-79
2021/12/07 10:10:18;;;;;;;;;;;19.90;46.30;;;;;;4970590;28;19910;-79
2021/12/07 10:12:44;;;;;;;;;;;19.20;36.90;;;;;;4972036;28;19914;-79
2021/12/07 10:15:10;;;;;;;;;;;18.60;35.80;;;;;;4933803;28;1105455;-76
2021/12/07 10:17:37;;;;;;;;;;;18.20;35.70;;;;;;4973029;28;20430;-77
2021/12/07 10:20:22;;;;;;;;;;;18.40;38.50;;;;;;4973060;28;19968;-77
2021/12/07 10:22:48;;;;;;;;;;;18.70;42.20;;;;;;4976063;28;19956;-78
2021/12/07 10:25:24;;;;;;;;;;;19.00;43.90;;;;;;4976272;28;19910;-77
2021/12/07 10:27:50;;;;;;;;;;;19.30;44.90;;;;;;4976811;28;20406;-78
2021/12/07 10:30:20;;;;;;;;;;;19.40;42.70;;;;;;4976421;28;19949;-77
2021/12/07 10:33:04;;;;;;;;;;;19.50;43.10;;;;;;4976785;28;20013;-75
2021/12/07 10:35:31;;;;;;;;;;;19.60;42.70;;;;;;4976002;28;19918;-77
2021/12/07 10:38:07;;;;;;;;;;;19.70;42.70;;;;;;4976370;28;19945;-77
2021/12/07 10:40:33;;;;;;;;;;;19.70;42.60;;;;;;4976264;28;19914;-77
2021/12/07 10:42:59;;;;;;;;;;;19.70;42.70;;;;;;4976374;28;19910;-78
2021/12/07 10:45:27;;;;;;;;;;;19.80;42.80;;;;;;4975928;28;19914;-77
2021/12/07 10:47:52;;;;;;;;;;;19.80;42.80;;;;;;4976471;28;19917;-77
2021/12/07 10:50:19;;;;;;;;;;;19.90;43.70;;;;;;4973833;28;19914;-77
2021/12/07 10:52:45;;;;;;;;;;;19.90;43.10;;;;;;4974973;28;19910;-77
2021/12/07 10:55:18;;;;;;;;;;;20.00;42.90;;;;;;4972598;28;19928;-78
2021/12/07 10:57:47;;;;;;;;;;;20.00;43.40;;;;;;4974767;28;19910;-77
2021/12/07 11:00:28;;;;;;;;;;;20.00;43.40;;;;;;4975290;28;19939;-77
2021/12/07 11:02:53;;;;;;;;;;;20.10;44.00;;;;;;4976017;28;20326;-77
2021/12/07 11:05:22;;;;;;;;;;;20.10;44.20;;;;;;4977099;28;19911;-77
2021/12/07 11:07:48;;;;;;;;;;;20.10;44.20;;;;;;4958428;28;19914;-77
2021/12/07 11:10:23;;;;;;;;;;;20.10;44.50;;;;;;4974678;28;20057;-77
2021/12/07 11:15:27;;;;;;;;;;;20.20;44.80;;;;;;4961073;28;19936;-77
2021/12/07 11:17:54;;;;;;;;;;;20.20;45.00;;;;;;4975613;28;19910;-77
2021/12/07 11:20:20;;;;;;;;;;;20.20;45.10;;;;;;4975164;28;19921;-77
2021/12/07 11:22:50;;;;;;;;;;;20.20;45.20;;;;;;4975187;28;19991;-77
2021/12/07 11:25:32;;;;;;;;;;;20.20;45.30;;;;;;4957625;28;19910;-76
2021/12/07 11:30:42;;;;;;;;;;;20.20;45.70;;;;;;4975105;28;19917;-77
2021/12/07 11:33:08;;;;;;;;;;;20.20;45.90;;;;;;4960617;28;19910;-77
2021/12/07 11:35:34;;;;;;;;;;;20.20;46.30;;;;;;4970510;28;19918;-76
2021/12/07 11:38:02;;;;;;;;;;;20.20;46.10;;;;;;4975518;28;19910;-76
2021/12/07 11:40:30;;;;;;;;;;;20.20;46.20;;;;;;4975359;28;19957;-76
2021/12/07 11:42:56;;;;;;;;;;;20.30;46.40;;;;;;4975129;28;19916;-77
2021/12/07 11:45:32;;;;;;;;;;;20.30;46.70;;;;;;4974380;28;20005;-77
2021/12/07 11:48:00;;;;;;;;;;;20.30;46.70;;;;;;4957913;28;19938;-77
2021/12/07 11:50:31;;;;;;;;;;;20.40;47.10;;;;;;4957520;28;19921;-76
2021/12/07 11:52:59;;;;;;;;;;;20.40;47.00;;;;;;4974772;28;19965;-76
2021/12/07 11:55:25;;;;;;;;;;;20.40;47.30;;;;;;4957475;28;19969;-77
2021/12/07 11:57:51;;;;;;;;;;;20.40;47.10;;;;;;4975048;28;19913;-77
2021/12/07 12:00:19;;;;;;;;;;;20.40;47.20;;;;;;4977900;28;19945;-76
2021/12/07 12:02:44;;;;;;;;;;;20.40;47.60;;;;;;4957921;28;19910;-76
2021/12/07 12:05:10;;;;;;;;;;;20.40;47.60;;;;;;4974221;28;19910;-76
2021/12/07 12:07:40;;;;;;;;;;;20.40;47.70;;;;;;4974789;28;20377;-75
2021/12/07 12:10:07;;;;;;;;;;;20.50;47.80;;;;;;4957004;28;19913;-76
2021/12/07 12:12:48;;;;;;;;;;;20.50;47.90;;;;;;4968169;28;20056;-77
2021/12/07 12:15:32;;;;;;;;;;;20.50;47.90;;;;;;4993556;28;20386;-76
2021/12/07 12:18:07;;;;;;;;;;;20.50;47.30;;;;;;4994254;28;19957;-76
2021/12/07 12:20:56;;;;;;;;;;;20.50;47.70;;;;;;4993522;28;19932;-76
2021/12/07 12:23:38;;;;;;;;;;;20.50;47.80;;;;;;4973886;28;20425;-76
2021/12/07 12:26:05;;;;;;;;;;;20.50;47.70;;;;;;4973892;28;20307;-75
2021/12/07 12:28:47;;;;;;;;;;;20.50;47.60;;;;;;4974327;28;19916;-75
2021/12/07 12:31:13;;;;;;;;;;;20.50;48.10;;;;;;4974789;28;19922;-76
2021/12/07 12:33:46;;;;;;;;;;;20.50;48.10;;;;;;4957289;28;19917;-76
2021/12/07 12:36:12;;;;;;;;;;;20.50;48.00;;;;;;4959076;28;19910;-75
2021/12/07 12:38:42;;;;;;;;;;;20.50;47.90;;;;;;4943824;28;19953;-76
2021/12/07 12:41:09;;;;;;;;;;;20.50;47.80;;;;;;4959049;28;19914;-75
2021/12/07 12:43:49;;;;;;;;;;;20.50;47.80;;;;;;4959087;28;19910;-76
2021/12/07 12:46:17;;;;;;;;;;;20.50;47.70;;;;;;4976217;28;19911;-76
2021/12/07 12:48:48;;;;;;;;;;;20.50;47.50;;;;;;4982147;28;19917;-76
2021/12/07 12:51:14;;;;;;;;;;;20.60;47.70;;;;;;4950852;28;19936;-77
2021/12/07 12:53:41;;;;;;;;;;;20.50;47.70;;;;;;4943243;28;21937;-74
2021/12/07 12:56:18;;;;;;;;;;;20.50;47.70;;;;;;4958581;28;19914;-74
2021/12/07 12:58:47;;;;;;;;;;;20.50;47.60;;;;;;4959106;28;19910;-75
2021/12/07 13:01:15;;;;;;;;;;;20.50;47.70;;;;;;4968733;28;19968;-75
2021/12/07 13:03:47;;;;;;;;;;;20.60;47.50;;;;;;4968541;28;19910;-75
2021/12/07 13:06:16;;;;;;;;;;;20.50;47.20;;;;;;4975169;28;19997;-75
2021/12/07 13:08:54;;;;;;;;;;;20.50;46.90;;;;;;4978018;28;19914;-76
2021/12/07 13:11:30;;;;;;;;;;;20.50;46.50;;;;;;4977609;28;19947;-76
2021/12/07 13:13:56;;;;;;;;;;;20.50;46.20;;;;;;4979067;28;19921;-73
2021/12/07 13:16:22;;;;;;;;;;;20.50;46.20;;;;;;4962246;28;20065;-75
2021/12/07 13:18:58;;;;;;;;;;;20.60;47.00;;;;;;4977835;28;19996;-74
2021/12/07 13:21:29;;;;;;;;;;;20.60;47.30;;;;;;4977931;28;19953;-75
2021/12/07 13:23:57;;;;;;;;;;;20.70;48.30;;;;;;4965882;28;19934;-75
2021/12/07 13:26:24;;;;;;;;;;;20.80;49.50;;;;;;4963224;28;19957;-74
2021/12/07 13:29:22;;;;;;;;;;;20.80;49.10;;;;;;4943186;28;19968;-75
2021/12/07 13:31:51;;;;;;;;;;;20.90;50.30;;;;;;4942181;29;20335;-76
2021/12/07 13:34:24;;;;;;;;;;;20.90;50.60;;;;;;4955462;28;19914;-72
2021/12/07 13:36:55;;;;;;;;;;;20.90;51.20;;;;;;4940953;28;19910;-75
2021/12/07 13:39:23;;;;;;;;;;;20.80;50.80;;;;;;4940036;29;20410;-75
2021/12/07 13:42:02;;;;;;;;;;;20.80;50.80;;;;;;4939336;29;19997;-75
2021/12/07 13:44:28;;;;;;;;;;;20.70;49.80;;;;;;4960271;28;20374;-75
2021/12/07 13:46:56;;;;;;;;;;;20.80;50.70;;;;;;4953902;28;20142;-75
2021/12/07 13:49:22;;;;;;;;;;;20.80;52.40;;;;;;4972556;28;19910;-75
2021/12/07 13:51:48;;;;;;;;;;;20.80;53.50;;;;;;4973042;28;19917;-74
2021/12/07 13:54:17;;;;;;;;;;;20.90;53.80;;;;;;4972680;28;19918;-74
2021/12/07 13:56:43;;;;;;;;;;;20.80;53.10;;;;;;4974292;28;20622;-75
2021/12/07 13:59:10;;;;;;;;;;;20.80;52.60;;;;;;4977026;28;19917;-75
2021/12/07 14:01:48;;;;;;;;;;;20.80;52.30;;;;;;4979191;28;20016;-75
2021/12/07 14:04:13;;;;;;;;;;;20.80;51.70;;;;;;4944217;28;19914;-76
2021/12/07 14:06:44;;;;;;;;;;;20.80;51.10;;;;;;4943566;28;19910;-76
2021/12/07 14:09:10;;;;;;;;;;;20.80;50.60;;;;;;4959948;28;20386;-76
2021/12/07 14:11:37;;;;;;;;;;;20.80;50.30;;;;;;4977505;28;19910;-76
2021/12/07 14:14:06;;;;;;;;;;;20.80;50.30;;;;;;4976818;28;20151;-76
2021/12/07 14:16:32;;;;;;;;;;;20.80;49.90;;;;;;4959571;28;20264;-76
2021/12/07 14:18:58;;;;;;;;;;;20.80;50.00;;;;;;4976569;28;19916;-77
2021/12/07 14:21:23;;;;;;;;;;;20.80;49.70;;;;;;4955402;28;20199;-76
2021/12/07 14:24:02;;;;;;;;;;;20.80;49.50;;;;;;4959321;28;19997;-76
2021/12/07 14:26:28;;;;;;;;;;;20.80;50.40;;;;;;4959182;28;19965;-75
2021/12/07 14:28:53;;;;;;;;;;;20.80;49.20;;;;;;4943653;28;19913;-75
2021/12/07 14:31:19;;;;;;;;;;;20.80;49.40;;;;;;4943176;28;20350;-78
2021/12/07 14:33:46;;;;;;;;;;;20.80;49.50;;;;;;4958604;28;19918;-77
2021/12/07 14:36:13;;;;;;;;;;;20.80;49.00;;;;;;4958920;28;20330;-77
2021/12/07 14:38:39;;;;;;;;;;;20.80;49.10;;;;;;4959350;28;19916;-77
2021/12/07 14:41:09;;;;;;;;;;;20.70;49.40;;;;;;4958012;28;20012;-76
2021/12/07 14:43:36;;;;;;;;;;;20.80;49.20;;;;;;4958571;28;19917;-78
2021/12/07 14:46:03;;;;;;;;;;;20.70;49.00;;;;;;4958570;28;19913;-77
2021/12/07 14:48:29;;;;;;;;;;;20.80;49.20;;;;;;4959216;28;19989;-77
2021/12/07 14:51:00;;;;;;;;;;;20.70;49.40;;;;;;4975630;28;20369;-76
2021/12/07 14:53:33;;;;;;;;;;;20.70;49.50;;;;;;4957887;28;19910;-76
2021/12/07 14:55:59;;;;;;;;;;;20.80;49.70;;;;;;4957310;28;19933;-76
2021/12/07 14:58:29;;;;;;;;;;;20.80;49.70;;;;;;4975536;28;19914;-76
2021/12/07 15:00:54;;;;;;;;;;;20.80;49.60;;;;;;4955953;28;20004;-76
2021/12/07 15:03:20;;;;;;;;;;;20.80;49.70;;;;;;4975741;28;20751;-76
2021/12/07 15:05:45;;;;;;;;;;;20.80;49.80;;;;;;4957635;28;19910;-77
2021/12/07 15:08:11;;;;;;;;;;;20.80;50.00;;;;;;4958602;28;19916;-76
2021/12/07 15:10:37;;;;;;;;;;;20.80;50.10;;;;;;4975968;28;20006;-76
2021/12/07 15:13:05;;;;;;;;;;;20.80;50.00;;;;;;4942911;28;19932;-76
2021/12/07 15:15:31;;;;;;;;;;;20.80;50.00;;;;;;4957850;28;20371;-76
2021/12/07 15:17:56;;;;;;;;;;;20.90;50.10;;;;;;4958185;28;19917;-76
2021/12/07 15:20:22;;;;;;;;;;;20.90;50.20;;;;;;4976310;28;20358;-76
2021/12/07 15:22:47;;;;;;;;;;;20.90;50.20;;;;;;4957995;28;20295;-76
2021/12/07 15:25:14;;;;;;;;;;;20.90;50.20;;;;;;4957893;28;19913;-76
2021/12/07 15:27:48;;;;;;;;;;;20.90;50.00;;;;;;4958303;28;19961;-75
2021/12/07 15:30:14;;;;;;;;;;;20.90;50.10;;;;;;4957910;28;19920;-76
2021/12/07 15:32:40;;;;;;;;;;;20.90;50.30;;;;;;4942550;28;19914;-75
2021/12/07 15:35:08;;;;;;;;;;;20.90;50.40;;;;;;4975775;28;19967;-77
2021/12/07 15:37:34;;;;;;;;;;;20.90;50.60;;;;;;4975874;28;19910;-76
2021/12/07 15:40:01;;;;;;;;;;;20.90;50.60;;;;;;4975057;28;19917;-76
2021/12/07 15:42:27;;;;;;;;;;;20.80;50.50;;;;;;4974464;28;19914;-76
2021/12/07 15:44:54;;;;;;;;;;;20.90;50.60;;;;;;4974320;28;19933;-76
2021/12/07 15:47:28;;;;;;;;;;;20.90;50.50;;;;;;4974684;28;19910;-76
2021/12/07 15:49:59;;;;;;;;;;;20.90;50.50;;;;;;4974800;28;19914;-76
2021/12/07 15:52:36;;;;;;;;;;;20.90;50.60;;;;;;4975121;28;19910;-76
2021/12/07 15:55:13;;;;;;;;;;;20.90;50.50;;;;;;4941016;28;19941;-76
2021/12/07 15:57:47;;;;;;;;;;;20.90;50.50;;;;;;4974799;28;20440;-76